Rainier — WTEF — position and weather

sailwx.info

Track history (hours):
 
Tides and Currents Weather Stations Pressure Air Temp Water Temp Dewpoint Dewpoint Depression Visibility Wind Speed Wind Dir Waves Ship Positions

Oceanographic research ship Rainier (USA)

Detailed information on ship capabilities available from University of Delaware's Ocean Information Center.

Last reported at 2018-Nov-10 16:03 UTC. Time now 2018-Dec-12 16:08 UTC.
Position N 32°02' W 080°50'.
Warning: this ship's position is 32 days out of date.

Type: Other ship. MMSI: 303935000.

Date/timePositionNaut miles runAvg speedWind from/ knotsBaromVisibWave heightAir tempDewpointWater temp
2018-Nov-10 16:03N 32°02' W 080°50'016.0
2018-Nov-10 16:02N 32°02' W 080°50'1 1.2
2018-Nov-10 15:33N 32°02' W 080°51'  
2018-Nov-02 04:51N 43°16' W 124°43'27311.4
2018-Nov-01 04:53N 38°46' W 123°45'410.2
2018-Nov-01 04:30N 38°43' W 123°43'510.3
2018-Nov-01 04:03N 38°39' W 123°40'110.7
2018-Nov-01 04:00N 38°38' W 123°40'510.5
2018-Nov-01 03:30N 38°34' W 123°37'510.8
2018-Nov-01 03:03N 38°29' W 123°34'111.0
2018-Nov-01 03:00N 38°29' W 123°34'510.7
2018-Nov-01 02:30N 38°24' W 123°30'510.7
2018-Nov-01 02:03N 38°20' W 123°27'010.9
2018-Nov-01 02:00N 38°19' W 123°27'510.7
2018-Nov-01 01:30N 38°15' W 123°24'510.5
2018-Nov-01 01:03N 38°11' W 123°21'111.2
2018-Nov-01 01:00N 38°10' W 123°21'510.8
2018-Nov-01 00:30N 38°06' W 123°17'510.8
2018-Nov-01 00:03N 38°02' W 123°13'111.4
2018-Nov-01 00:00N 38°02' W 123°12'611.1
2018-Oct-31 23:30N 37°58' W 123°07'511.3
2018-Oct-31 23:03N 37°55' W 123°02'111.1
2018-Oct-31 23:00N 37°55' W 123°01'611.7
2018-Oct-31 22:30N 37°52' W 122°55'511.4
2018-Oct-31 22:03N 37°49' W 122°49'111.7
2018-Oct-31 22:00N 37°49' W 122°48'611.3
2018-Oct-31 21:30N 37°45' W 122°44'511.8
2018-Oct-31 21:03N 37°40' W 122°40'112.0
2018-Oct-31 21:00N 37°40' W 122°40'611.7
2018-Oct-31 20:30N 37°35' W 122°36'511.8
2018-Oct-31 20:03N 37°30' W 122°32'112.0
2018-Oct-31 20:00N 37°30' W 122°32'3 5.6
2018-Oct-31 19:30N 37°29' W 122°28'0 0.3
2018-Oct-31 19:03N 37°29' W 122°28'0 4.6
2018-Oct-31 19:00N 37°29' W 122°29'5 9.6
2018-Oct-31 18:30N 37°27' W 122°34'512.2
2018-Oct-31 18:03N 37°24' W 122°40'010.0
2018-Oct-31 18:00N 37°23' W 122°40'510.3
2018-Oct-31 17:30N 37°18' W 122°40'511.8
2018-Oct-31 17:03N 37°13' W 122°40'111.4
2018-Oct-31 17:00N 37°12' W 122°40'611.4
2018-Oct-31 16:30N 37°07' W 122°38'511.3
2018-Oct-31 16:03N 37°02' W 122°35'  
Track history (hours):
 
Tides and Currents Weather Stations Pressure Air Temp Water Temp Dewpoint Dewpoint Depression Visibility Wind Speed Wind Dir Waves Ship Positions

Oceanographic research ship Rainier (USA)

Detailed information on ship capabilities available from University of Delaware's Ocean Information Center.

Last reported at 2018-Nov-10 16:03 UTC. Time now 2018-Dec-12 16:08 UTC.
Position N 32°02' W 080°50'.
Warning: this ship's position is 32 days out of date.

Type: Other ship. MMSI: 303935000.

Date/timePositionNaut miles runAvg speedWind from/ knotsBaromVisibWave heightAir tempDewpointWater temp
2018-Nov-10 16:03N 32°02' W 080°50'016.0
2018-Nov-10 16:02N 32°02' W 080°50'1 1.2
2018-Nov-10 15:33N 32°02' W 080°51'  
2018-Nov-02 04:51N 43°16' W 124°43'27311.4
2018-Nov-01 04:53N 38°46' W 123°45'410.2
2018-Nov-01 04:30N 38°43' W 123°43'510.3
2018-Nov-01 04:03N 38°39' W 123°40'110.7
2018-Nov-01 04:00N 38°38' W 123°40'510.5
2018-Nov-01 03:30N 38°34' W 123°37'510.8
2018-Nov-01 03:03N 38°29' W 123°34'111.0
2018-Nov-01 03:00N 38°29' W 123°34'510.7
2018-Nov-01 02:30N 38°24' W 123°30'510.7
2018-Nov-01 02:03N 38°20' W 123°27'010.9
2018-Nov-01 02:00N 38°19' W 123°27'510.7
2018-Nov-01 01:30N 38°15' W 123°24'510.5
2018-Nov-01 01:03N 38°11' W 123°21'111.2
2018-Nov-01 01:00N 38°10' W 123°21'510.8
2018-Nov-01 00:30N 38°06' W 123°17'510.8
2018-Nov-01 00:03N 38°02' W 123°13'111.4
2018-Nov-01 00:00N 38°02' W 123°12'611.1
2018-Oct-31 23:30N 37°58' W 123°07'511.3
2018-Oct-31 23:03N 37°55' W 123°02'111.1
2018-Oct-31 23:00N 37°55' W 123°01'611.7
2018-Oct-31 22:30N 37°52' W 122°55'511.4
2018-Oct-31 22:03N 37°49' W 122°49'111.7
2018-Oct-31 22:00N 37°49' W 122°48'611.3
2018-Oct-31 21:30N 37°45' W 122°44'511.8
2018-Oct-31 21:03N 37°40' W 122°40'112.0
2018-Oct-31 21:00N 37°40' W 122°40'611.7
2018-Oct-31 20:30N 37°35' W 122°36'511.8
2018-Oct-31 20:03N 37°30' W 122°32'112.0
2018-Oct-31 20:00N 37°30' W 122°32'3 5.6
2018-Oct-31 19:30N 37°29' W 122°28'0 0.3
2018-Oct-31 19:03N 37°29' W 122°28'0 4.6
2018-Oct-31 19:00N 37°29' W 122°29'5 9.6
2018-Oct-31 18:30N 37°27' W 122°34'512.2
2018-Oct-31 18:03N 37°24' W 122°40'010.0
2018-Oct-31 18:00N 37°23' W 122°40'510.3
2018-Oct-31 17:30N 37°18' W 122°40'511.8
2018-Oct-31 17:03N 37°13' W 122°40'111.4
2018-Oct-31 17:00N 37°12' W 122°40'611.4
2018-Oct-31 16:30N 37°07' W 122°38'511.3
2018-Oct-31 16:03N 37°02' W 122°35'  

Dump ship's entire track history